createdAt,value
2019-04-03T00:04:20.671Z,6.70
2019-04-03T00:09:21.824Z,6.10
2019-04-03T00:14:22.941Z,4.77
2019-04-03T00:19:24.040Z,3.80
2019-04-03T00:24:25.161Z,3.30
2019-04-03T00:29:26.267Z,2.90
2019-04-03T00:34:27.361Z,3.10
2019-04-03T00:39:28.475Z,3.33
2019-04-03T00:44:29.556Z,2.97
2019-04-03T00:49:30.643Z,3.07
2019-04-03T00:54:31.745Z,2.63
2019-04-03T00:59:32.911Z,2.97
2019-04-03T01:04:34.135Z,2.57
2019-04-03T01:09:35.230Z,2.73
2019-04-03T01:14:36.323Z,2.90
2019-04-03T01:19:37.412Z,2.83
2019-04-03T01:24:39.078Z,3.10
2019-04-03T01:29:42.349Z,2.77
2019-04-03T01:34:43.305Z,3.00
2019-04-03T01:39:45.835Z,2.80
2019-04-03T01:44:46.930Z,3.13
2019-04-03T01:49:48.023Z,3.00
2019-04-03T01:54:49.123Z,3.07
2019-04-03T01:59:50.233Z,3.00
2019-04-03T02:04:51.464Z,2.73
2019-04-03T02:09:52.555Z,2.77
2019-04-03T02:14:53.689Z,2.90
2019-04-03T02:19:56.595Z,2.37
2019-04-03T02:24:57.813Z,2.50
2019-04-03T02:29:58.903Z,2.70
2019-04-03T02:35:00.003Z,2.47
2019-04-03T02:40:01.432Z,2.83
2019-04-03T02:45:05.309Z,2.70
2019-04-03T02:50:06.813Z,2.93
2019-04-03T02:55:08.572Z,2.93
2019-04-03T03:00:10.535Z,2.83
2019-04-03T03:05:12.014Z,3.07
2019-04-03T03:10:13.605Z,4.00
2019-04-03T03:15:14.823Z,3.40
2019-04-03T03:20:19.713Z,3.30
2019-04-03T03:25:21.548Z,3.10
2019-04-03T03:30:42.020Z,3.47
2019-04-03T03:35:31.577Z,3.20
2019-04-03T03:40:32.542Z,4.13
2019-04-03T03:45:33.913Z,3.83
2019-04-03T03:50:35.845Z,4.17
2019-04-03T03:55:37.611Z,3.40
2019-04-03T04:00:39.219Z,3.93
2019-04-03T04:05:40.896Z,4.57
2019-04-03T04:10:42.614Z,3.87
2019-04-03T04:15:44.336Z,4.13
2019-04-03T04:20:45.809Z,4.73
2019-04-03T04:25:47.133Z,4.07
2019-04-03T04:30:48.437Z,4.37
2019-04-03T04:35:51.685Z,4.33
2019-04-03T04:40:52.629Z,4.37
2019-04-03T04:45:53.811Z,4.70
2019-04-03T04:50:55.507Z,4.50
2019-04-03T04:55:56.823Z,4.83
2019-04-03T05:00:58.119Z,4.73
2019-04-03T05:05:59.215Z,4.40
2019-04-03T05:11:00.418Z,4.03
2019-04-03T05:16:01.636Z,4.72
2019-04-03T05:21:03.536Z,4.00
2019-04-03T05:26:04.650Z,4.73
2019-04-03T05:31:06.076Z,5.00
2019-04-03T05:36:08.743Z,4.83
2019-04-03T05:41:09.836Z,5.13
2019-04-03T05:46:10.923Z,6.50
2019-04-03T05:51:12.020Z,5.57
2019-04-03T05:56:13.220Z,4.87
2019-04-03T06:01:14.413Z,4.57
2019-04-03T06:06:15.687Z,4.77
2019-04-03T06:11:16.934Z,4.57
2019-04-03T06:16:18.028Z,4.73
2019-04-03T06:21:19.116Z,4.83
2019-04-03T06:26:20.244Z,4.53
2019-04-03T06:31:21.416Z,4.10
2019-04-03T06:36:22.733Z,5.00
2019-04-03T06:41:23.952Z,4.30
2019-04-03T06:46:25.041Z,4.10
2019-04-03T06:51:26.145Z,4.97
2019-04-03T06:56:27.242Z,4.70
2019-04-03T07:01:28.426Z,4.30
2019-04-03T07:06:29.523Z,4.00
2019-04-03T07:11:30.641Z,4.30
2019-04-03T07:16:32.114Z,3.60
2019-04-03T07:21:33.204Z,3.50
2019-04-03T07:26:35.673Z,3.60
2019-04-03T07:31:38.643Z,3.50
2019-04-03T07:36:41.305Z,3.13
2019-04-03T07:41:43.085Z,2.50
2019-04-03T07:46:44.574Z,2.07
2019-04-03T07:51:45.869Z,1.90
2019-04-03T07:56:46.975Z,2.37
2019-04-03T08:01:48.125Z,2.00
2019-04-03T08:06:49.272Z,2.10
2019-04-03T08:11:50.383Z,2.00
2019-04-03T08:16:51.486Z,1.90
2019-04-03T08:21:54.710Z,1.70
2019-04-03T08:26:55.891Z,1.83
2019-04-03T08:31:56.993Z,2.10
2019-04-03T08:36:58.083Z,1.90
2019-04-03T08:42:00.077Z,2.83
2019-04-03T08:47:01.335Z,3.47
2019-04-03T08:52:03.907Z,2.60
2019-04-03T08:57:05.650Z,2.33
2019-04-03T09:02:08.196Z,3.83
2019-04-03T09:07:09.925Z,3.00
2019-04-03T09:12:11.052Z,4.60
2019-04-03T09:17:12.155Z,3.03
2019-04-03T09:22:13.255Z,3.50
2019-04-03T09:27:14.382Z,3.93
2019-04-03T09:32:15.489Z,4.20
2019-04-03T09:37:18.161Z,4.23
2019-04-03T09:42:21.169Z,3.47
2019-04-03T09:47:22.845Z,3.20
2019-04-03T09:52:25.312Z,3.87
2019-04-03T09:57:28.524Z,3.10
2019-04-03T10:02:30.071Z,2.77
2019-04-03T10:07:31.984Z,8.57
2019-04-03T10:12:34.323Z,3.30
2019-04-03T10:17:37.449Z,5.53
2019-04-03T10:22:39.631Z,3.07
2019-04-03T10:27:42.742Z,2.87
2019-04-03T10:32:43.727Z,3.20
2019-04-03T10:37:46.287Z,3.10
2019-04-03T10:42:47.827Z,2.87
2019-04-03T10:47:49.031Z,3.13
2019-04-03T10:52:50.129Z,2.67
2019-04-03T10:57:51.473Z,3.87
2019-04-03T11:02:53.035Z,3.23
2019-04-03T11:07:54.209Z,3.60
2019-04-03T11:12:55.687Z,3.20
2019-04-03T11:17:56.939Z,3.17
2019-04-03T11:23:05.378Z,3.20
2019-04-03T11:28:01.148Z,3.13
2019-04-03T11:33:02.668Z,3.00
2019-04-03T11:38:12.656Z,3.30
2019-04-03T11:43:06.853Z,2.90
2019-04-03T11:48:08.037Z,2.70
2019-04-03T11:53:09.360Z,3.00
2019-04-03T11:58:10.549Z,3.20
2019-04-03T12:03:12.148Z,2.93
2019-04-03T12:08:13.744Z,3.23
2019-04-03T12:13:15.012Z,3.57
2019-04-03T12:18:16.131Z,3.53
2019-04-03T12:23:17.313Z,3.57
2019-04-03T12:28:18.975Z,3.83
2019-04-03T12:33:21.544Z,3.63
2019-04-03T12:38:23.408Z,3.50
2019-04-03T12:43:25.053Z,4.20
2019-04-03T12:48:27.885Z,4.10
2019-04-03T12:53:29.249Z,4.87
2019-04-03T12:58:30.348Z,3.77
2019-04-03T13:03:31.971Z,4.07
2019-04-03T13:08:33.179Z,4.43
2019-04-03T13:13:34.335Z,4.33
2019-04-03T13:18:35.530Z,4.07
2019-04-03T13:23:36.644Z,4.33
2019-04-03T13:28:40.208Z,4.73
2019-04-03T13:33:40.940Z,5.37
2019-04-03T13:38:42.397Z,4.87
2019-04-03T13:43:43.779Z,5.00
2019-04-03T13:48:46.316Z,5.40
2019-04-03T13:53:47.487Z,5.07
2019-04-03T13:58:48.590Z,5.77
2019-04-03T14:03:50.894Z,5.50
2019-04-03T14:08:53.554Z,5.03
2019-04-03T14:13:54.795Z,5.77
2019-04-03T14:18:56.648Z,8.27
2019-04-03T14:23:57.911Z,6.43
2019-04-03T14:28:59.054Z,4.23
2019-04-03T14:34:00.382Z,4.90
2019-04-03T14:39:03.580Z,3.90
2019-04-03T14:44:06.976Z,4.20
2019-04-03T14:49:07.745Z,4.90
2019-04-03T14:54:09.023Z,4.70
2019-04-03T14:59:10.246Z,4.90
2019-04-03T15:04:11.334Z,5.40
2019-04-03T15:09:14.058Z,5.70
2019-04-03T15:14:15.811Z,5.13
2019-04-03T15:19:16.907Z,4.60
2019-04-03T15:24:18.040Z,4.67
2019-04-03T15:29:19.168Z,5.60
2019-04-03T15:34:20.275Z,6.23
2019-04-03T15:39:21.576Z,4.33
2019-04-03T15:44:22.812Z,3.93
2019-04-03T15:49:26.596Z,4.53
2019-04-03T15:54:27.107Z,4.17
2019-04-03T15:59:29.629Z,3.40
2019-04-03T16:04:33.847Z,2.70
2019-04-03T16:09:34.755Z,2.40
2019-04-03T16:14:35.997Z,4.00
2019-04-03T16:19:37.431Z,4.10
2019-04-03T16:24:38.619Z,3.80
2019-04-03T16:29:41.083Z,3.27
2019-04-03T16:34:42.750Z,2.60
2019-04-03T16:39:44.426Z,1.87
2019-04-03T16:44:46.006Z,6.23
2019-04-03T16:49:47.517Z,4.20
2019-04-03T16:54:49.042Z,5.70
2019-04-03T16:59:50.164Z,1.30
2019-04-03T17:04:51.501Z,1.10
2019-04-03T17:09:52.712Z,0.97
2019-04-03T17:14:55.021Z,7.13
2019-04-03T17:19:57.073Z,1.40
2019-04-03T17:24:58.237Z,1.40
2019-04-03T17:29:59.625Z,1.30
2019-04-03T17:35:01.414Z,1.60
2019-04-03T17:40:06.609Z,4.80
2019-04-03T17:45:08.388Z,1.43
2019-04-03T17:50:10.285Z,1.50
2019-04-03T17:55:12.091Z,2.10
2019-04-03T18:00:15.536Z,2.63
2019-04-03T18:05:16.841Z,2.45
2019-04-03T18:10:18.226Z,2.23
2019-04-03T18:15:19.628Z,2.20
2019-04-03T18:20:21.182Z,2.20
2019-04-03T18:25:22.686Z,1.87
2019-04-03T18:30:24.175Z,2.37
2019-04-03T18:35:26.183Z,2.00
2019-04-03T18:40:27.659Z,2.37
2019-04-03T18:45:28.936Z,2.67
2019-04-03T18:50:30.179Z,3.20
2019-04-03T18:55:31.458Z,1.50
2019-04-03T19:00:32.670Z,1.83
2019-04-03T19:05:34.129Z,1.80
2019-04-03T19:10:35.373Z,1.93
2019-04-03T19:15:36.693Z,2.67
2019-04-03T19:20:39.492Z,3.60
2019-04-03T19:25:40.987Z,2.70
2019-04-03T19:30:42.309Z,2.33
2019-04-03T19:35:43.599Z,2.80
2019-04-03T19:40:44.919Z,3.40
2019-04-03T19:45:46.100Z,3.13
2019-04-03T19:50:47.223Z,2.80
2019-04-03T19:55:48.427Z,3.53
2019-04-03T20:00:49.641Z,4.50
2019-04-03T20:05:50.993Z,4.57
2019-04-03T20:10:52.233Z,3.73
2019-04-03T20:15:54.549Z,4.27
2019-04-03T20:20:55.881Z,4.97
2019-04-03T20:25:57.125Z,4.40
2019-04-03T20:30:58.600Z,4.33
2019-04-03T20:35:59.917Z,4.77
2019-04-03T20:41:03.253Z,5.10
2019-04-03T20:46:04.185Z,5.17
2019-04-03T20:51:08.621Z,4.50
2019-04-03T20:56:08.404Z,3.23
2019-04-03T21:01:09.535Z,3.33
2019-04-03T21:06:10.632Z,2.93
2019-04-03T21:11:11.733Z,3.10
2019-04-03T21:16:13.222Z,2.93
2019-04-03T21:21:16.147Z,2.70
2019-04-03T21:26:17.239Z,3.43
2019-04-03T21:31:18.343Z,2.40
2019-04-03T21:36:19.475Z,2.20
2019-04-03T21:41:21.233Z,1.90
2019-04-03T21:46:22.676Z,1.90
2019-04-03T21:51:23.787Z,1.57
2019-04-03T21:56:24.900Z,1.47
2019-04-03T22:01:26.206Z,1.43
2019-04-03T22:06:27.839Z,1.30
2019-04-03T22:11:29.116Z,1.50
2019-04-03T22:16:30.489Z,0.90
2019-04-03T22:21:32.583Z,0.90
2019-04-03T22:26:34.083Z,0.70
2019-04-03T22:31:35.207Z,1.30
2019-04-03T22:36:36.304Z,1.20
2019-04-03T22:41:37.390Z,1.40
2019-04-03T22:46:38.493Z,1.20
2019-04-03T22:51:39.575Z,0.80
2019-04-03T22:56:40.684Z,0.80
2019-04-03T23:01:41.777Z,0.80
2019-04-03T23:06:43.066Z,0.47
2019-04-03T23:11:44.179Z,0.70
2019-04-03T23:16:45.303Z,0.83
2019-04-03T23:21:46.411Z,0.80
2019-04-03T23:26:47.498Z,1.00
2019-04-03T23:31:48.602Z,0.83
2019-04-03T23:36:49.718Z,0.93
2019-04-03T23:41:50.817Z,0.73
2019-04-03T23:46:52.022Z,1.00
2019-04-03T23:51:53.107Z,0.80
2019-04-03T23:56:54.204Z,0.93
